QLK2160 YSSY-YPMQ
Flight info
| Callsign | QLK2160 |
|---|---|
| Flight time | 0h 47m |
| Altitude | 19000 |
| Route | SY3/34R OLSEM H252 EKIPU/N0316F180 H252 WLM V535 UBSON/N0316F170 V535 NICLA DCT PQ2SB |
| Aircraft | DH8D/M-SDE2E3FGRY/H |
Departure
| Time | 2026-04-26 03:54 |
|---|---|
| Airport | Sydney Kingsford Smith International Airport (YSSY) |
Arrival
| Time | 2026-04-26 04:41 |
|---|---|
| Airport | Port Macquarie Airport (YPMQ) |
| Time | Latitude | Longitude | Altitude | Speed | Heading |
|---|---|---|---|---|---|
| 2026-04-26 03:21 | -33.93264 | 151.17679 | 18 ft | 0 kts | 85° |
| 2026-04-26 03:40 | -33.93264 | 151.17680 | 18 ft | 0 kts | 92° |
| 2026-04-26 03:40 | -33.93271 | 151.17683 | 18 ft | 1 kts | 194° |
| 2026-04-26 03:41 | -33.93273 | 151.17679 | 18 ft | 0 kts | 253° |
| 2026-04-26 03:43 | -33.93274 | 151.17679 | 18 ft | 0 kts | 253° |
| 2026-04-26 03:43 | -33.93283 | 151.17639 | 18 ft | 7 kts | 255° |
| 2026-04-26 03:43 | -33.93323 | 151.17589 | 17 ft | 10 kts | 195° |
| 2026-04-26 03:44 | -33.93406 | 151.17595 | 14 ft | 13 kts | 182° |
| 2026-04-26 03:44 | -33.93505 | 151.17592 | 10 ft | 15 kts | 169° |
| 2026-04-26 03:44 | -33.93606 | 151.17618 | 10 ft | 14 kts | 163° |
| 2026-04-26 03:44 | -33.93693 | 151.17670 | 10 ft | 13 kts | 159° |
| 2026-04-26 03:45 | -33.93784 | 151.17697 | 10 ft | 13 kts | 167° |
| 2026-04-26 03:45 | -33.93856 | 151.17749 | 11 ft | 11 kts | 130° |
| 2026-04-26 03:45 | -33.93924 | 151.17786 | 12 ft | 10 kts | 168° |
| 2026-04-26 03:45 | -33.94033 | 151.17815 | 13 ft | 22 kts | 168° |
| 2026-04-26 03:46 | -33.94176 | 151.17850 | 17 ft | 19 kts | 168° |
| 2026-04-26 03:46 | -33.94290 | 151.17880 | 21 ft | 14 kts | 168° |
| 2026-04-26 03:46 | -33.94403 | 151.17909 | 25 ft | 17 kts | 167° |
| 2026-04-26 03:47 | -33.94614 | 151.17911 | 27 ft | 13 kts | 166° |
| 2026-04-26 03:47 | -33.94706 | 151.17931 | 28 ft | 12 kts | 168° |
| 2026-04-26 03:47 | -33.94803 | 151.17956 | 29 ft | 16 kts | 168° |
| 2026-04-26 03:47 | -33.94917 | 151.17986 | 27 ft | 16 kts | 167° |
| 2026-04-26 03:48 | -33.95026 | 151.18015 | 25 ft | 15 kts | 168° |
| 2026-04-26 03:48 | -33.95126 | 151.18041 | 21 ft | 12 kts | 168° |
| 2026-04-26 03:48 | -33.95195 | 151.17995 | 20 ft | 12 kts | 253° |
| 2026-04-26 03:48 | -33.95211 | 151.17912 | 20 ft | 7 kts | 258° |
| 2026-04-26 03:49 | -33.95213 | 151.17899 | 20 ft | 0 kts | 258° |
| 2026-04-26 03:51 | -33.95215 | 151.17889 | 20 ft | 7 kts | 258° |
| 2026-04-26 03:51 | -33.95233 | 151.17787 | 20 ft | 10 kts | 257° |
| 2026-04-26 03:52 | -33.95203 | 151.17747 | 20 ft | 0 kts | 348° |
| 2026-04-26 03:53 | -33.95113 | 151.17723 | 20 ft | 49 kts | 347° |
| 2026-04-26 03:53 | -33.94500 | 151.17564 | 25 ft | 125 kts | 347° |
| 2026-04-26 03:53 | -33.93536 | 151.17319 | 214 ft | 152 kts | 346° |
| 2026-04-26 03:54 | -33.92482 | 151.17001 | 715 ft | 163 kts | 336° |
| 2026-04-26 03:54 | -33.91739 | 151.15977 | 1230 ft | 172 kts | 287° |
| 2026-04-26 03:54 | -33.91864 | 151.14555 | 1854 ft | 181 kts | 249° |
| 2026-04-26 03:54 | -33.92448 | 151.13200 | 2464 ft | 189 kts | 243° |
| 2026-04-26 03:55 | -33.93141 | 151.11732 | 2780 ft | 213 kts | 242° |
| 2026-04-26 03:55 | -33.93899 | 151.10161 | 2976 ft | 225 kts | 241° |
| 2026-04-26 03:55 | -33.94901 | 151.08704 | 3372 ft | 224 kts | 216° |
| 2026-04-26 03:55 | -33.96206 | 151.08075 | 4565 ft | 201 kts | 188° |
| 2026-04-26 03:56 | -33.97626 | 151.07812 | 5114 ft | 215 kts | 188° |
| 2026-04-26 03:56 | -33.99089 | 151.07465 | 5913 ft | 212 kts | 192° |
| 2026-04-26 03:56 | -34.00538 | 151.07098 | 6603 ft | 216 kts | 187° |
| 2026-04-26 03:56 | -34.01873 | 151.07288 | 7696 ft | 193 kts | 158° |
| 2026-04-26 03:57 | -34.03027 | 151.08173 | 8271 ft | 202 kts | 134° |
| 2026-04-26 03:57 | -34.03707 | 151.09651 | 8840 ft | 205 kts | 98° |
| 2026-04-26 03:57 | -34.03516 | 151.11270 | 9582 ft | 200 kts | 66° |
| 2026-04-26 03:57 | -34.02971 | 151.12796 | 10253 ft | 202 kts | 67° |
| 2026-04-26 03:58 | -34.02326 | 151.14296 | 10918 ft | 203 kts | 48° |
| 2026-04-26 03:58 | -34.01153 | 151.15207 | 11561 ft | 206 kts | 22° |
| 2026-04-26 03:58 | -33.99802 | 151.15836 | 12207 ft | 212 kts | 21° |
| 2026-04-26 03:58 | -33.98401 | 151.16515 | 12713 ft | 224 kts | 22° |
| 2026-04-26 03:59 | -33.96956 | 151.17250 | 13404 ft | 227 kts | 24° |
| 2026-04-26 03:59 | -33.95505 | 151.18013 | 14090 ft | 231 kts | 24° |
| 2026-04-26 03:59 | -33.94034 | 151.18797 | 14794 ft | 230 kts | 24° |
| 2026-04-26 03:59 | -33.92571 | 151.19583 | 15273 ft | 233 kts | 25° |
| 2026-04-26 04:00 | -33.91097 | 151.20403 | 15680 ft | 236 kts | 25° |
| 2026-04-26 04:00 | -33.89607 | 151.21237 | 16130 ft | 237 kts | 26° |
| 2026-04-26 04:00 | -33.88123 | 151.22070 | 16554 ft | 238 kts | 26° |
| 2026-04-26 04:00 | -33.86622 | 151.22920 | 16994 ft | 239 kts | 26° |
| 2026-04-26 04:01 | -33.85109 | 151.23778 | 17425 ft | 241 kts | 26° |
| 2026-04-26 04:01 | -33.83591 | 151.24640 | 17785 ft | 244 kts | 26° |
| 2026-04-26 04:01 | -33.82043 | 151.25519 | 18134 ft | 244 kts | 26° |
| 2026-04-26 04:01 | -33.80502 | 151.26393 | 18490 ft | 245 kts | 26° |
| 2026-04-26 04:02 | -33.78975 | 151.27261 | 18806 ft | 246 kts | 26° |
| 2026-04-26 04:02 | -33.77424 | 151.28143 | 19111 ft | 248 kts | 26° |
| 2026-04-26 04:02 | -33.75824 | 151.29053 | 19237 ft | 258 kts | 26° |
| 2026-04-26 04:02 | -33.74175 | 151.29993 | 19278 ft | 270 kts | 26° |
| 2026-04-26 04:03 | -33.72438 | 151.30980 | 19291 ft | 284 kts | 26° |
| 2026-04-26 04:03 | -33.70591 | 151.32028 | 19293 ft | 297 kts | 26° |
| 2026-04-26 04:03 | -33.68694 | 151.33104 | 19276 ft | 307 kts | 26° |
| 2026-04-26 04:03 | -33.66746 | 151.34207 | 19271 ft | 315 kts | 26° |
| 2026-04-26 04:04 | -33.64714 | 151.35358 | 19269 ft | 322 kts | 26° |
| 2026-04-26 04:04 | -33.62667 | 151.36516 | 19262 ft | 328 kts | 26° |
| 2026-04-26 04:04 | -33.60605 | 151.37683 | 19273 ft | 331 kts | 26° |
| 2026-04-26 04:04 | -33.58507 | 151.38870 | 19270 ft | 335 kts | 26° |
| 2026-04-26 04:05 | -33.56379 | 151.40073 | 19267 ft | 337 kts | 26° |
| 2026-04-26 04:05 | -33.54262 | 151.41270 | 19265 ft | 339 kts | 26° |
| 2026-04-26 04:05 | -33.52128 | 151.42476 | 19263 ft | 341 kts | 26° |
| 2026-04-26 04:05 | -33.49965 | 151.43700 | 19262 ft | 342 kts | 26° |
| 2026-04-26 04:06 | -33.47796 | 151.44923 | 19262 ft | 343 kts | 26° |
| 2026-04-26 04:06 | -33.45645 | 151.46140 | 19264 ft | 343 kts | 26° |
| 2026-04-26 04:06 | -33.43488 | 151.47357 | 19263 ft | 344 kts | 26° |
| 2026-04-26 04:06 | -33.41311 | 151.48587 | 19261 ft | 344 kts | 26° |
| 2026-04-26 04:07 | -33.39160 | 151.49800 | 19260 ft | 344 kts | 26° |
| 2026-04-26 04:07 | -33.37001 | 151.51018 | 19261 ft | 345 kts | 26° |
| 2026-04-26 04:07 | -33.34806 | 151.52255 | 19261 ft | 344 kts | 26° |
| 2026-04-26 04:07 | -33.32668 | 151.53461 | 19262 ft | 344 kts | 26° |
| 2026-04-26 04:08 | -33.30476 | 151.54695 | 19261 ft | 344 kts | 26° |
| 2026-04-26 04:08 | -33.28326 | 151.55907 | 19261 ft | 345 kts | 26° |
| 2026-04-26 04:08 | -33.26147 | 151.57132 | 19260 ft | 345 kts | 26° |
| 2026-04-26 04:08 | -33.23960 | 151.58360 | 19261 ft | 345 kts | 26° |
| 2026-04-26 04:09 | -33.21807 | 151.59569 | 19263 ft | 345 kts | 26° |
| 2026-04-26 04:09 | -33.19626 | 151.60792 | 19262 ft | 345 kts | 26° |
| 2026-04-26 04:09 | -33.17435 | 151.62022 | 19263 ft | 345 kts | 26° |
| 2026-04-26 04:09 | -33.15265 | 151.63240 | 19262 ft | 345 kts | 26° |
| 2026-04-26 04:10 | -33.13085 | 151.64462 | 19264 ft | 345 kts | 26° |
| 2026-04-26 04:10 | -33.10912 | 151.65680 | 19265 ft | 345 kts | 26° |
| 2026-04-26 04:10 | -33.08751 | 151.66891 | 19264 ft | 346 kts | 26° |
| 2026-04-26 04:10 | -33.06551 | 151.68123 | 19261 ft | 345 kts | 26° |
| 2026-04-26 04:11 | -33.04388 | 151.69333 | 19261 ft | 345 kts | 25° |
| 2026-04-26 04:11 | -33.02209 | 151.70552 | 19263 ft | 345 kts | 26° |
| 2026-04-26 04:11 | -33.00046 | 151.71762 | 19262 ft | 345 kts | 26° |
| 2026-04-26 04:11 | -32.97852 | 151.72987 | 19262 ft | 346 kts | 26° |
| 2026-04-26 04:12 | -32.95697 | 151.74191 | 19261 ft | 345 kts | 26° |
| 2026-04-26 04:12 | -32.93507 | 151.75415 | 19261 ft | 346 kts | 26° |
| 2026-04-26 04:12 | -32.91332 | 151.76628 | 19261 ft | 346 kts | 26° |
| 2026-04-26 04:12 | -32.89137 | 151.77853 | 19263 ft | 346 kts | 26° |
| 2026-04-26 04:13 | -32.86980 | 151.79054 | 19263 ft | 346 kts | 26° |
| 2026-04-26 04:13 | -32.84798 | 151.80270 | 19261 ft | 346 kts | 25° |
| 2026-04-26 04:13 | -32.82602 | 151.81493 | 19261 ft | 346 kts | 26° |
| 2026-04-26 04:13 | -32.80393 | 151.82623 | 19246 ft | 347 kts | 19° |
| 2026-04-26 04:14 | -32.78016 | 151.83093 | 19280 ft | 347 kts | 6° |
| 2026-04-26 04:14 | -32.75603 | 151.83353 | 19272 ft | 348 kts | 6° |
| 2026-04-26 04:14 | -32.73169 | 151.83607 | 19265 ft | 348 kts | 6° |
| 2026-04-26 04:14 | -32.70771 | 151.83859 | 19261 ft | 348 kts | 6° |
| 2026-04-26 04:15 | -32.68355 | 151.84117 | 19259 ft | 348 kts | 6° |
| 2026-04-26 04:15 | -32.65931 | 151.84376 | 19259 ft | 348 kts | 6° |
| 2026-04-26 04:15 | -32.63519 | 151.84637 | 19262 ft | 348 kts | 6° |
| 2026-04-26 04:15 | -32.61113 | 151.84900 | 19265 ft | 348 kts | 6° |
| 2026-04-26 04:16 | -32.58675 | 151.85165 | 19266 ft | 349 kts | 6° |
| 2026-04-26 04:16 | -32.56261 | 151.85429 | 19267 ft | 349 kts | 6° |
| 2026-04-26 04:16 | -32.53860 | 151.85692 | 19267 ft | 349 kts | 6° |
| 2026-04-26 04:16 | -32.51430 | 151.85957 | 19266 ft | 349 kts | 6° |
| 2026-04-26 04:17 | -32.49012 | 151.86223 | 19267 ft | 349 kts | 6° |
| 2026-04-26 04:17 | -32.46594 | 151.86487 | 19260 ft | 340 kts | 6° |
| 2026-04-26 04:17 | -32.44291 | 151.86731 | 18870 ft | 332 kts | 6° |
| 2026-04-26 04:17 | -32.42094 | 151.87181 | 18819 ft | 312 kts | 15° |
| 2026-04-26 04:18 | -32.40048 | 151.87889 | 18706 ft | 299 kts | 18° |
| 2026-04-26 04:18 | -32.38079 | 151.88597 | 18329 ft | 296 kts | 18° |
| 2026-04-26 04:18 | -32.36099 | 151.89313 | 17945 ft | 295 kts | 18° |
| 2026-04-26 04:18 | -32.34156 | 151.90013 | 17643 ft | 292 kts | 18° |
| 2026-04-26 04:19 | -32.32193 | 151.90718 | 17290 ft | 292 kts | 18° |
| 2026-04-26 04:19 | -32.30269 | 151.91408 | 16969 ft | 290 kts | 18° |
| 2026-04-26 04:19 | -32.28323 | 151.92102 | 16644 ft | 289 kts | 17° |
| 2026-04-26 04:19 | -32.26409 | 151.92784 | 16313 ft | 288 kts | 17° |
| 2026-04-26 04:20 | -32.24499 | 151.93465 | 15993 ft | 287 kts | 17° |
| 2026-04-26 04:20 | -32.22585 | 151.94144 | 15664 ft | 286 kts | 17° |
| 2026-04-26 04:20 | -32.20688 | 151.94818 | 15356 ft | 285 kts | 17° |
| 2026-04-26 04:20 | -32.18787 | 151.95491 | 15047 ft | 283 kts | 17° |
| 2026-04-26 04:21 | -32.16915 | 151.96155 | 14739 ft | 282 kts | 17° |
| 2026-04-26 04:21 | -32.15025 | 151.96825 | 14425 ft | 282 kts | 17° |
| 2026-04-26 04:21 | -32.13149 | 151.97490 | 14174 ft | 280 kts | 17° |
| 2026-04-26 04:21 | -32.11292 | 151.98146 | 13903 ft | 280 kts | 17° |
| 2026-04-26 04:22 | -32.09412 | 151.98811 | 13643 ft | 279 kts | 17° |
| 2026-04-26 04:22 | -32.07558 | 151.99466 | 13391 ft | 277 kts | 17° |
| 2026-04-26 04:22 | -32.05729 | 152.00220 | 13107 ft | 277 kts | 27° |
| 2026-04-26 04:22 | -32.04333 | 152.01714 | 12848 ft | 274 kts | 53° |
| 2026-04-26 04:23 | -32.03286 | 152.03566 | 12592 ft | 273 kts | 57° |
| 2026-04-26 04:23 | -32.02262 | 152.05438 | 12345 ft | 272 kts | 57° |
| 2026-04-26 04:23 | -32.01236 | 152.07320 | 12101 ft | 271 kts | 57° |
| 2026-04-26 04:23 | -32.00223 | 152.09175 | 11857 ft | 270 kts | 57° |
| 2026-04-26 04:24 | -31.99195 | 152.11055 | 11608 ft | 269 kts | 57° |
| 2026-04-26 04:24 | -31.98190 | 152.12891 | 11365 ft | 269 kts | 56° |
| 2026-04-26 04:24 | -31.97170 | 152.14734 | 11148 ft | 267 kts | 56° |
| 2026-04-26 04:24 | -31.96173 | 152.16568 | 10887 ft | 267 kts | 57° |
| 2026-04-26 04:25 | -31.95163 | 152.18410 | 10669 ft | 266 kts | 56° |
| 2026-04-26 04:25 | -31.94165 | 152.20224 | 10449 ft | 264 kts | 56° |
| 2026-04-26 04:25 | -31.93163 | 152.22043 | 10192 ft | 264 kts | 56° |
| 2026-04-26 04:25 | -31.92166 | 152.23856 | 9982 ft | 263 kts | 56° |
| 2026-04-26 04:26 | -31.91170 | 152.25662 | 9755 ft | 262 kts | 56° |
| 2026-04-26 04:26 | -31.90181 | 152.27458 | 9528 ft | 261 kts | 56° |
| 2026-04-26 04:26 | -31.89192 | 152.29251 | 9307 ft | 260 kts | 56° |
| 2026-04-26 04:26 | -31.88213 | 152.31026 | 9085 ft | 259 kts | 56° |
| 2026-04-26 04:27 | -31.87227 | 152.32811 | 8865 ft | 259 kts | 56° |
| 2026-04-26 04:27 | -31.86252 | 152.34578 | 8641 ft | 258 kts | 56° |
| 2026-04-26 04:27 | -31.85298 | 152.36304 | 8554 ft | 248 kts | 56° |
| 2026-04-26 04:27 | -31.84367 | 152.37985 | 8298 ft | 242 kts | 56° |
| 2026-04-26 04:28 | -31.83476 | 152.39597 | 8194 ft | 230 kts | 56° |
| 2026-04-26 04:28 | -31.82592 | 152.41194 | 7802 ft | 233 kts | 56° |
| 2026-04-26 04:28 | -31.81723 | 152.42766 | 7473 ft | 231 kts | 56° |
| 2026-04-26 04:28 | -31.80840 | 152.44363 | 7159 ft | 230 kts | 56° |
| 2026-04-26 04:29 | -31.79981 | 152.45915 | 6828 ft | 230 kts | 56° |
| 2026-04-26 04:29 | -31.79100 | 152.47502 | 6690 ft | 231 kts | 56° |
| 2026-04-26 04:29 | -31.78223 | 152.49080 | 6607 ft | 228 kts | 56° |
| 2026-04-26 04:29 | -31.77352 | 152.50644 | 6387 ft | 227 kts | 56° |
| 2026-04-26 04:30 | -31.76494 | 152.52185 | 6150 ft | 227 kts | 56° |
| 2026-04-26 04:30 | -31.75640 | 152.53725 | 5925 ft | 226 kts | 56° |
| 2026-04-26 04:30 | -31.74773 | 152.55286 | 5717 ft | 225 kts | 56° |
| 2026-04-26 04:30 | -31.73927 | 152.56808 | 5611 ft | 219 kts | 56° |
| 2026-04-26 04:31 | -31.73105 | 152.58284 | 5508 ft | 214 kts | 56° |
| 2026-04-26 04:31 | -31.72306 | 152.59720 | 5350 ft | 212 kts | 55° |
| 2026-04-26 04:31 | -31.71495 | 152.61177 | 5183 ft | 209 kts | 55° |
| 2026-04-26 04:31 | -31.70715 | 152.62579 | 5046 ft | 207 kts | 55° |
| 2026-04-26 04:32 | -31.69924 | 152.64003 | 4875 ft | 206 kts | 55° |
| 2026-04-26 04:32 | -31.69137 | 152.65418 | 4705 ft | 206 kts | 54° |
| 2026-04-26 04:32 | -31.68358 | 152.66815 | 4536 ft | 206 kts | 54° |
| 2026-04-26 04:32 | -31.67579 | 152.68216 | 4352 ft | 198 kts | 54° |
| 2026-04-26 04:33 | -31.66861 | 152.69508 | 4152 ft | 183 kts | 54° |
| 2026-04-26 04:33 | -31.66192 | 152.70699 | 3947 ft | 168 kts | 50° |
| 2026-04-26 04:33 | -31.65362 | 152.71558 | 3747 ft | 152 kts | 29° |
| 2026-04-26 04:33 | -31.64468 | 152.72162 | 3598 ft | 142 kts | 27° |
| 2026-04-26 04:34 | -31.63640 | 152.72717 | 3423 ft | 135 kts | 27° |
| 2026-04-26 04:34 | -31.62843 | 152.73254 | 3245 ft | 129 kts | 27° |
| 2026-04-26 04:34 | -31.62064 | 152.73779 | 3113 ft | 128 kts | 27° |
| 2026-04-26 04:34 | -31.61277 | 152.74310 | 2976 ft | 130 kts | 27° |
| 2026-04-26 04:35 | -31.60482 | 152.74846 | 2824 ft | 134 kts | 27° |
| 2026-04-26 04:35 | -31.59658 | 152.75397 | 2668 ft | 135 kts | 27° |
| 2026-04-26 04:35 | -31.58848 | 152.75938 | 2487 ft | 133 kts | 27° |
| 2026-04-26 04:35 | -31.58051 | 152.76471 | 2307 ft | 131 kts | 27° |
| 2026-04-26 04:36 | -31.57272 | 152.76993 | 2125 ft | 128 kts | 27° |
| 2026-04-26 04:36 | -31.56504 | 152.77510 | 1932 ft | 123 kts | 27° |
| 2026-04-26 04:36 | -31.55772 | 152.78001 | 1763 ft | 120 kts | 27° |
| 2026-04-26 04:36 | -31.55053 | 152.78485 | 1611 ft | 120 kts | 27° |
| 2026-04-26 04:37 | -31.54324 | 152.78975 | 1477 ft | 120 kts | 27° |
| 2026-04-26 04:37 | -31.53600 | 152.79462 | 1350 ft | 119 kts | 27° |
| 2026-04-26 04:37 | -31.52874 | 152.79952 | 1264 ft | 121 kts | 27° |
| 2026-04-26 04:37 | -31.52134 | 152.80447 | 1185 ft | 124 kts | 26° |
| 2026-04-26 04:38 | -31.51373 | 152.80957 | 1100 ft | 127 kts | 26° |
| 2026-04-26 04:38 | -31.50601 | 152.81476 | 1021 ft | 130 kts | 27° |
| 2026-04-26 04:38 | -31.49808 | 152.82011 | 924 ft | 128 kts | 26° |
| 2026-04-26 04:38 | -31.49045 | 152.82524 | 830 ft | 125 kts | 26° |
| 2026-04-26 04:39 | -31.48299 | 152.83025 | 735 ft | 123 kts | 25° |
| 2026-04-26 04:39 | -31.47563 | 152.83514 | 660 ft | 122 kts | 25° |
| 2026-04-26 04:39 | -31.46807 | 152.84019 | 555 ft | 124 kts | 26° |
| 2026-04-26 04:39 | -31.46055 | 152.84531 | 461 ft | 125 kts | 25° |
| 2026-04-26 04:40 | -31.45293 | 152.85037 | 308 ft | 128 kts | 25° |
| 2026-04-26 04:40 | -31.44529 | 152.85565 | 113 ft | 125 kts | 28° |
| 2026-04-26 04:40 | -31.43790 | 152.86052 | 26 ft | 116 kts | 29° |
| 2026-04-26 04:40 | -31.43203 | 152.86446 | 26 ft | 56 kts | 28° |
| 2026-04-26 04:41 | -31.43045 | 152.86554 | 27 ft | 11 kts | 44° |
| 2026-04-26 04:41 | -31.43047 | 152.86636 | 27 ft | 10 kts | 105° |
| 2026-04-26 04:41 | -31.43029 | 152.86706 | 28 ft | 6 kts | 68° |
| 2026-04-26 04:41 | -31.43041 | 152.86754 | 27 ft | 6 kts | 150° |
| 2026-04-26 04:42 | -31.43059 | 152.86740 | 28 ft | 2 kts | 248° |
| 2026-04-26 04:42 | -31.43061 | 152.86734 | 28 ft | 0 kts | 246° |
| 2026-04-26 04:42 | -31.43068 | 152.86719 | 28 ft | 0 kts | 241° |